createdAt,value
2017-07-10T00:02:58.989Z,22.00
2017-07-10T00:08:01.453Z,22.10
2017-07-10T00:13:04.383Z,22.00
2017-07-10T00:18:06.875Z,22.10
2017-07-10T00:23:09.365Z,21.60
2017-07-10T00:28:11.141Z,21.50
2017-07-10T00:33:13.634Z,21.90
2017-07-10T00:38:16.126Z,22.00
2017-07-10T00:43:18.618Z,21.90
2017-07-10T00:48:21.110Z,21.40
2017-07-10T00:53:23.603Z,21.30
2017-07-10T00:58:26.297Z,21.10
2017-07-10T01:03:28.970Z,20.90
2017-07-10T01:08:30.646Z,20.80
2017-07-10T01:13:32.317Z,20.80
2017-07-10T01:18:33.986Z,20.90
2017-07-10T01:23:35.686Z,21.40
2017-07-10T01:28:38.149Z,21.10
2017-07-10T01:33:39.850Z,21.00
2017-07-10T01:38:43.104Z,21.40
2017-07-10T01:43:45.037Z,21.30
2017-07-10T01:48:48.145Z,21.10
2017-07-10T01:53:49.920Z,21.00
2017-07-10T01:58:52.617Z,20.80
2017-07-10T02:03:54.392Z,20.80
2017-07-10T02:08:56.883Z,20.80
2017-07-10T02:13:59.376Z,20.90
2017-07-10T02:19:01.048Z,20.80
2017-07-10T02:24:03.517Z,20.90
2017-07-10T02:29:05.211Z,20.80
2017-07-10T02:34:07.641Z,21.20
2017-07-10T02:39:09.376Z,21.10
2017-07-10T02:44:26.574Z,21.30
2017-07-10T02:49:43.056Z,21.30
2017-07-10T02:54:59.605Z,21.10
2017-07-10T03:00:16.779Z,21.20
2017-07-10T03:05:33.283Z,21.20
2017-07-10T03:10:49.709Z,21.30
2017-07-10T03:16:06.129Z,21.10
2017-07-10T03:21:23.011Z,21.20
2017-07-10T03:26:26.017Z,21.00
2017-07-10T03:31:27.755Z,21.00
2017-07-10T03:36:30.186Z,21.10
2017-07-10T03:41:31.900Z,21.00
2017-07-10T03:46:33.593Z,21.00
2017-07-10T03:51:36.086Z,21.00
2017-07-10T03:56:39.010Z,21.00
2017-07-10T04:01:40.657Z,20.90
2017-07-10T04:06:43.148Z,21.10
2017-07-10T04:11:44.822Z,21.00
2017-07-10T04:16:47.314Z,21.10
2017-07-10T04:21:50.057Z,21.10
2017-07-10T04:26:51.791Z,21.30
2017-07-10T04:31:54.258Z,21.20
2017-07-10T04:36:56.133Z,21.20
2017-07-10T04:41:57.802Z,21.30
2017-07-10T04:47:00.627Z,21.30
2017-07-10T04:52:03.097Z,21.20
2017-07-10T04:57:04.775Z,21.20
2017-07-10T05:02:06.541Z,21.30
2017-07-10T05:07:08.526Z,21.20
2017-07-10T05:12:10.219Z,21.20
2017-07-10T05:17:12.686Z,21.10
2017-07-10T05:22:14.383Z,21.00
2017-07-10T05:27:17.490Z,21.20
2017-07-10T05:32:19.982Z,21.30
2017-07-10T05:37:23.227Z,21.30
2017-07-10T05:42:25.146Z,21.30
2017-07-10T05:47:26.842Z,21.40
2017-07-10T05:52:29.334Z,21.40
2017-07-10T05:57:31.801Z,21.20
2017-07-10T06:02:33.474Z,21.20
2017-07-10T06:07:35.274Z,21.20
2017-07-10T06:12:36.927Z,21.00
2017-07-10T06:18:02.561Z,21.00
2017-07-10T06:23:04.252Z,21.00
2017-07-10T06:28:05.897Z,21.00
2017-07-10T06:33:08.213Z,21.00
2017-07-10T06:38:10.705Z,21.00
2017-07-10T06:43:13.130Z,21.00
2017-07-10T06:48:14.805Z,21.00
2017-07-10T06:53:16.542Z,20.70
2017-07-10T06:58:18.318Z,20.50
2017-07-10T07:03:20.809Z,20.30
2017-07-10T07:08:23.273Z,20.20
2017-07-10T07:13:24.946Z,20.10
2017-07-10T07:18:26.648Z,20.30
2017-07-10T07:23:29.958Z,20.50
2017-07-10T07:28:31.733Z,20.40
2017-07-10T07:33:34.225Z,20.70
2017-07-10T07:38:36.654Z,21.10
2017-07-10T07:43:38.882Z,21.00
2017-07-10T07:48:41.221Z,20.90
2017-07-10T07:53:42.964Z,20.90
2017-07-10T07:58:44.737Z,21.00
2017-07-10T08:03:46.411Z,21.00
2017-07-10T08:08:48.903Z,21.60
2017-07-10T08:13:51.395Z,21.50
2017-07-10T08:18:53.861Z,21.60
2017-07-10T08:23:55.537Z,21.50
2017-07-10T08:28:57.247Z,22.00
2017-07-10T08:33:59.905Z,22.30
2017-07-10T08:39:01.604Z,22.30
2017-07-10T08:44:04.094Z,22.40
2017-07-10T08:49:06.586Z,22.30
2017-07-10T08:54:09.078Z,22.40
2017-07-10T08:59:11.571Z,22.40
2017-07-10T09:04:14.061Z,22.60
2017-07-10T09:09:16.555Z,22.60
2017-07-10T09:14:19.047Z,23.20
2017-07-10T09:19:21.537Z,23.00
2017-07-10T09:24:23.142Z,22.90
2017-07-10T09:29:24.882Z,23.30
2017-07-10T09:34:27.374Z,23.20
2017-07-10T09:39:29.049Z,23.20
2017-07-10T09:44:31.513Z,24.00
2017-07-10T09:49:33.190Z,24.00
2017-07-10T09:54:34.884Z,24.60
2017-07-10T09:59:37.376Z,23.90
2017-07-10T10:04:39.867Z,24.90
2017-07-10T10:09:42.318Z,24.90
2017-07-10T10:14:44.033Z,24.80
2017-07-10T10:19:46.525Z,24.20
2017-07-10T10:24:49.538Z,24.50
2017-07-10T10:29:51.826Z,24.50
2017-07-10T10:34:53.590Z,24.30
2017-07-10T10:39:56.083Z,24.20
2017-07-10T10:44:58.574Z,24.40
2017-07-10T10:50:01.068Z,24.60
2017-07-10T10:55:03.494Z,24.10
2017-07-10T11:00:05.231Z,24.10
2017-07-10T11:05:07.657Z,24.20
2017-07-10T11:10:09.396Z,24.20
2017-07-10T11:15:26.841Z,24.20
2017-07-10T11:20:29.329Z,24.50
2017-07-10T11:25:31.823Z,25.00
2017-07-10T11:30:34.314Z,25.20
2017-07-10T11:35:36.806Z,24.90
2017-07-10T11:40:39.297Z,24.50
2017-07-10T11:45:41.791Z,24.20
2017-07-10T11:50:44.283Z,24.00
2017-07-10T11:55:46.774Z,23.90
2017-07-10T12:00:49.266Z,23.80
2017-07-10T12:05:51.759Z,23.90
2017-07-10T12:10:54.186Z,24.00
2017-07-10T12:15:56.494Z,23.90
2017-07-10T12:20:58.186Z,23.80
2017-07-10T12:25:59.884Z,23.40
2017-07-10T12:31:02.376Z,22.40
2017-07-10T12:36:04.848Z,22.20
2017-07-10T12:41:06.517Z,22.10
2017-07-10T12:46:08.189Z,22.20
2017-07-10T12:51:09.886Z,22.50
2017-07-10T12:56:12.379Z,23.30
2017-07-10T13:01:14.870Z,23.60
2017-07-10T13:06:18.464Z,23.80
2017-07-10T13:11:20.879Z,23.70
2017-07-10T13:16:23.809Z,23.70
2017-07-10T13:21:25.739Z,23.60
2017-07-10T13:26:30.098Z,23.30
2017-07-10T13:31:32.998Z,23.30
2017-07-10T13:36:35.693Z,23.30
2017-07-10T13:41:38.596Z,23.30
2017-07-10T13:46:41.884Z,23.20
2017-07-10T13:51:44.299Z,23.70
2017-07-10T13:56:46.731Z,23.70
2017-07-10T14:01:49.871Z,24.10
2017-07-10T14:06:52.215Z,24.50
2017-07-10T14:11:55.595Z,25.00
2017-07-10T14:16:58.703Z,25.00
2017-07-10T14:22:00.960Z,24.90
2017-07-10T14:27:02.660Z,25.40
2017-07-10T14:32:05.153Z,24.90
2017-07-10T14:37:07.502Z,24.90
2017-07-10T14:42:09.216Z,24.50
2017-07-10T14:47:10.965Z,24.50
2017-07-10T14:52:12.637Z,24.80
2017-07-10T14:57:14.337Z,25.20
2017-07-10T15:02:16.829Z,25.00
2017-07-10T15:07:18.605Z,25.00
2017-07-10T15:12:21.096Z,25.00
2017-07-10T15:17:23.564Z,25.00
2017-07-10T15:22:25.261Z,24.90
2017-07-10T15:27:27.724Z,25.30
2017-07-10T15:32:29.340Z,25.30
2017-07-10T15:37:31.742Z,25.70
2017-07-10T15:42:33.408Z,25.70
2017-07-10T15:47:35.132Z,25.90
2017-07-10T15:52:36.752Z,25.50
2017-07-10T15:57:38.509Z,25.30
2017-07-10T16:02:40.967Z,25.10
2017-07-10T16:07:42.672Z,25.10
2017-07-10T16:12:44.344Z,25.00
2017-07-10T16:17:46.834Z,24.70
2017-07-10T16:22:48.609Z,24.70
2017-07-10T16:27:51.033Z,24.70
2017-07-10T16:32:52.978Z,24.60
2017-07-10T16:37:55.410Z,24.20
2017-07-10T16:42:57.143Z,24.20
2017-07-10T16:47:59.635Z,23.80
2017-07-10T16:53:02.126Z,24.20
2017-07-10T16:58:04.619Z,24.30
2017-07-10T17:03:08.135Z,24.20
2017-07-10T17:08:10.628Z,24.20
2017-07-10T17:13:12.401Z,24.10
2017-07-10T17:18:14.690Z,23.90
2017-07-10T17:23:17.311Z,23.90
2017-07-10T17:28:20.313Z,23.90
2017-07-10T17:33:21.960Z,23.80
2017-07-10T17:38:26.168Z,23.90
2017-07-10T17:43:27.968Z,24.00
2017-07-10T17:48:29.745Z,24.10
2017-07-10T17:53:31.519Z,23.80
2017-07-10T17:58:34.937Z,23.60
2017-07-10T18:03:51.657Z,23.50
2017-07-10T18:08:53.331Z,23.50
2017-07-10T18:13:55.824Z,23.30
2017-07-10T18:18:58.314Z,23.20
2017-07-10T18:24:00.780Z,23.10
2017-07-10T18:29:02.480Z,23.10
2017-07-10T18:34:04.971Z,22.90
2017-07-10T18:39:07.471Z,22.90
2017-07-10T18:44:09.966Z,22.90
2017-07-10T18:49:13.440Z,22.90
2017-07-10T18:54:15.349Z,22.80
2017-07-10T18:59:17.768Z,23.00
2017-07-10T19:04:19.336Z,22.90
2017-07-10T19:09:21.058Z,22.90
2017-07-10T19:14:22.684Z,22.80
2017-07-10T19:19:24.362Z,22.80
2017-07-10T19:24:26.323Z,22.50
2017-07-10T19:29:28.186Z,22.40
2017-07-10T19:34:30.682Z,22.40
2017-07-10T19:39:32.284Z,22.40
2017-07-10T19:44:33.957Z,22.40
2017-07-10T19:49:35.649Z,22.30
2017-07-10T19:54:37.340Z,22.30
2017-07-10T19:59:39.015Z,22.10
2017-07-10T20:04:41.124Z,22.00
2017-07-10T20:09:42.898Z,21.90
2017-07-10T20:14:45.392Z,21.80
2017-07-10T20:19:48.370Z,21.60
2017-07-10T20:24:50.026Z,21.60
2017-07-10T20:29:51.682Z,21.60
2017-07-10T20:34:53.411Z,21.80
2017-07-10T20:39:55.907Z,21.70
2017-07-10T20:44:58.395Z,21.50
2017-07-10T20:50:00.888Z,21.40
2017-07-10T20:55:03.319Z,21.10
2017-07-10T21:00:05.052Z,21.10
2017-07-10T21:05:07.544Z,21.10
2017-07-10T21:10:10.035Z,21.20
2017-07-10T21:15:12.527Z,21.20
2017-07-10T21:20:15.019Z,21.20
2017-07-10T21:25:17.428Z,21.30
2017-07-10T21:30:19.156Z,21.20
2017-07-10T21:35:20.830Z,21.20
2017-07-10T21:40:22.502Z,21.20
2017-07-10T21:45:24.173Z,21.10
2017-07-10T21:50:25.848Z,21.20
2017-07-10T21:55:27.580Z,21.10
2017-07-10T22:00:29.153Z,21.10
2017-07-10T22:05:30.725Z,21.10
2017-07-10T22:10:32.400Z,21.00
2017-07-10T22:15:34.136Z,21.10
2017-07-10T22:20:36.629Z,21.00
2017-07-10T22:25:39.120Z,21.00
2017-07-10T22:30:41.614Z,21.00
2017-07-10T22:35:44.043Z,21.00
2017-07-10T22:40:45.780Z,20.90
2017-07-10T22:45:48.206Z,20.80
2017-07-10T22:50:50.622Z,20.70
2017-07-10T22:55:52.414Z,20.80
2017-07-10T23:00:54.108Z,20.70
2017-07-10T23:05:56.599Z,20.60
2017-07-10T23:10:59.072Z,20.60
2017-07-10T23:16:00.867Z,20.60
2017-07-10T23:21:03.360Z,20.60
2017-07-10T23:26:05.790Z,20.60
2017-07-10T23:31:07.497Z,20.50
2017-07-10T23:36:09.194Z,20.60
2017-07-10T23:41:11.686Z,20.50
2017-07-10T23:46:13.391Z,20.50
2017-07-10T23:51:15.056Z,20.40
2017-07-10T23:56:18.174Z,20.40
